sensor_id;sensor_type;location;lat;lon;timestamp;pressure;altitude;pressure_sealevel;temperature;humidity
2841;BME280;53423;49.224;12.074;2023-04-15T00:01:11;96642.13;;;8.40;68.84
2841;BME280;53423;49.224;12.074;2023-04-15T00:03:44;96638.88;;;8.38;68.71
2841;BME280;53423;49.224;12.074;2023-04-15T00:06:12;96640.06;;;8.36;68.99
2841;BME280;53423;49.224;12.074;2023-04-15T00:08:41;96633.22;;;8.35;68.76
2841;BME280;53423;49.224;12.074;2023-04-15T00:11:10;96631.34;;;8.43;68.86
2841;BME280;53423;49.224;12.074;2023-04-15T00:13:38;96630.38;;;8.44;68.18
2841;BME280;53423;49.224;12.074;2023-04-15T00:16:07;96627.28;;;8.41;68.32
2841;BME280;53423;49.224;12.074;2023-04-15T00:18:36;96623.13;;;8.32;69.16
2841;BME280;53423;49.224;12.074;2023-04-15T00:21:04;96621.78;;;8.36;68.53
2841;BME280;53423;49.224;12.074;2023-04-15T00:23:32;96620.47;;;8.40;68.45
2841;BME280;53423;49.224;12.074;2023-04-15T00:26:01;96624.03;;;8.39;68.88
2841;BME280;53423;49.224;12.074;2023-04-15T00:28:31;96619.28;;;8.42;68.49
2841;BME280;53423;49.224;12.074;2023-04-15T00:30:59;96616.03;;;8.40;68.41
2841;BME280;53423;49.224;12.074;2023-04-15T00:33:27;96614.06;;;8.42;68.39
2841;BME280;53423;49.224;12.074;2023-04-15T00:35:54;96608.31;;;8.47;68.16
2841;BME280;53423;49.224;12.074;2023-04-15T00:38:23;96608.03;;;8.42;68.89
2841;BME280;53423;49.224;12.074;2023-04-15T00:40:51;96602.63;;;8.43;68.45
2841;BME280;53423;49.224;12.074;2023-04-15T00:43:19;96605.06;;;8.45;68.38
2841;BME280;53423;49.224;12.074;2023-04-15T00:45:48;96605.78;;;8.53;68.19
2841;BME280;53423;49.224;12.074;2023-04-15T00:48:19;96599.41;;;8.56;67.96
2841;BME280;53423;49.224;12.074;2023-04-15T00:50:47;96594.00;;;8.43;68.16
2841;BME280;53423;49.224;12.074;2023-04-15T00:53:15;96593.63;;;8.46;68.00
2841;BME280;53423;49.224;12.074;2023-04-15T00:55:44;96591.47;;;8.49;68.38
2841;BME280;53423;49.224;12.074;2023-04-15T00:58:11;96587.41;;;8.47;68.17
2841;BME280;53423;49.224;12.074;2023-04-15T01:00:42;96590.19;;;8.45;68.50
2841;BME280;53423;49.224;12.074;2023-04-15T01:03:12;96594.28;;;8.48;68.20
2841;BME280;53423;49.224;12.074;2023-04-15T01:05:41;96587.28;;;8.26;68.38
2841;BME280;53423;49.224;12.074;2023-04-15T01:08:09;96581.34;;;8.32;68.95
2841;BME280;53423;49.224;12.074;2023-04-15T01:10:37;96596.59;;;8.43;68.47
2841;BME280;53423;49.224;12.074;2023-04-15T01:13:05;96584.34;;;8.43;68.58
2841;BME280;53423;49.224;12.074;2023-04-15T01:15:34;96586.06;;;8.51;68.29
2841;BME280;53423;49.224;12.074;2023-04-15T01:18:03;96582.66;;;8.50;68.04
2841;BME280;53423;49.224;12.074;2023-04-15T01:20:33;96588.41;;;8.46;68.69
2841;BME280;53423;49.224;12.074;2023-04-15T01:23:01;96584.53;;;8.42;67.95
2841;BME280;53423;49.224;12.074;2023-04-15T01:25:32;96581.91;;;8.42;67.73
2841;BME280;53423;49.224;12.074;2023-04-15T01:28:00;96583.28;;;8.38;68.68
2841;BME280;53423;49.224;12.074;2023-04-15T01:30:33;96578.28;;;8.28;68.78
2841;BME280;53423;49.224;12.074;2023-04-15T01:33:00;96573.47;;;8.40;68.65
2841;BME280;53423;49.224;12.074;2023-04-15T01:35:28;96578.97;;;8.45;68.09
2841;BME280;53423;49.224;12.074;2023-04-15T01:38:00;96586.81;;;8.22;68.45
2841;BME280;53423;49.224;12.074;2023-04-15T01:40:32;96584.81;;;8.47;68.04
2841;BME280;53423;49.224;12.074;2023-04-15T01:43:01;96588.31;;;8.39;67.96
2841;BME280;53423;49.224;12.074;2023-04-15T01:45:29;96584.78;;;8.32;68.42
2841;BME280;53423;49.224;12.074;2023-04-15T01:47:57;96583.06;;;8.25;68.93
2841;BME280;53423;49.224;12.074;2023-04-15T01:50:25;96581.72;;;8.29;68.62
2841;BME280;53423;49.224;12.074;2023-04-15T01:52:53;96573.00;;;8.36;68.59
2841;BME280;53423;49.224;12.074;2023-04-15T01:55:21;96567.84;;;8.28;69.01
2841;BME280;53423;49.224;12.074;2023-04-15T01:57:50;96571.63;;;8.26;68.00
2841;BME280;53423;49.224;12.074;2023-04-15T02:00:18;96574.47;;;8.16;68.52
2841;BME280;53423;49.224;12.074;2023-04-15T02:02:47;96575.06;;;8.26;68.46
2841;BME280;53423;49.224;12.074;2023-04-15T02:05:16;96568.75;;;8.35;68.41
2841;BME280;53423;49.224;12.074;2023-04-15T02:07:44;96576.13;;;8.32;67.74
2841;BME280;53423;49.224;12.074;2023-04-15T02:10:12;96574.06;;;8.27;68.21
2841;BME280;53423;49.224;12.074;2023-04-15T02:12:40;96576.78;;;8.34;68.33
2841;BME280;53423;49.224;12.074;2023-04-15T02:15:10;96567.25;;;8.41;68.23
2841;BME280;53423;49.224;12.074;2023-04-15T02:17:38;96574.16;;;8.48;67.74
2841;BME280;53423;49.224;12.074;2023-04-15T02:20:08;96574.16;;;8.34;68.09
2841;BME280;53423;49.224;12.074;2023-04-15T02:22:36;96573.63;;;8.38;68.15
2841;BME280;53423;49.224;12.074;2023-04-15T02:25:05;96569.22;;;8.39;67.88
2841;BME280;53423;49.224;12.074;2023-04-15T02:27:33;96572.47;;;8.41;67.87
2841;BME280;53423;49.224;12.074;2023-04-15T02:30:02;96565.91;;;8.45;68.22
2841;BME280;53423;49.224;12.074;2023-04-15T02:32:31;96568.06;;;8.41;68.45
2841;BME280;53423;49.224;12.074;2023-04-15T02:35:01;96566.06;;;8.43;68.14
2841;BME280;53423;49.224;12.074;2023-04-15T02:37:30;96564.56;;;8.49;68.38
2841;BME280;53423;49.224;12.074;2023-04-15T02:39:58;96566.06;;;8.43;68.64
2841;BME280;53423;49.224;12.074;2023-04-15T02:42:26;96567.53;;;8.46;68.23
2841;BME280;53423;49.224;12.074;2023-04-15T02:44:56;96559.69;;;8.46;68.41
2841;BME280;53423;49.224;12.074;2023-04-15T02:47:23;96562.47;;;8.44;68.39
2841;BME280;53423;49.224;12.074;2023-04-15T02:49:53;96563.34;;;8.37;68.36
2841;BME280;53423;49.224;12.074;2023-04-15T02:52:21;96566.22;;;8.27;69.00
2841;BME280;53423;49.224;12.074;2023-04-15T02:54:49;96568.84;;;8.42;68.57
2841;BME280;53423;49.224;12.074;2023-04-15T02:57:17;96567.44;;;8.39;69.15
2841;BME280;53423;49.224;12.074;2023-04-15T02:59:45;96567.44;;;8.39;69.10
2841;BME280;53423;49.224;12.074;2023-04-15T03:02:13;96568.84;;;8.27;69.64
2841;BME280;53423;49.224;12.074;2023-04-15T03:04:41;96570.69;;;8.41;68.73
2841;BME280;53423;49.224;12.074;2023-04-15T03:07:10;96570.88;;;8.40;69.30
2841;BME280;53423;49.224;12.074;2023-04-15T03:09:38;96566.97;;;8.36;69.31
2841;BME280;53423;49.224;12.074;2023-04-15T03:12:06;96565.78;;;8.38;69.27
2841;BME280;53423;49.224;12.074;2023-04-15T03:14:34;96574.44;;;8.39;69.38
2841;BME280;53423;49.224;12.074;2023-04-15T03:17:02;96571.47;;;8.42;69.14
2841;BME280;53423;49.224;12.074;2023-04-15T03:19:30;96570.91;;;8.32;69.44
2841;BME280;53423;49.224;12.074;2023-04-15T03:21:58;96570.22;;;8.38;69.09
2841;BME280;53423;49.224;12.074;2023-04-15T03:24:27;96567.59;;;8.38;69.57
2841;BME280;53423;49.224;12.074;2023-04-15T03:26:56;96559.78;;;8.38;69.62
2841;BME280;53423;49.224;12.074;2023-04-15T03:29:24;96566.16;;;8.35;69.75
2841;BME280;53423;49.224;12.074;2023-04-15T03:31:52;96564.53;;;8.34;70.23
2841;BME280;53423;49.224;12.074;2023-04-15T03:34:20;96561.94;;;8.34;69.79
2841;BME280;53423;49.224;12.074;2023-04-15T03:36:48;96561.56;;;8.37;69.63
2841;BME280;53423;49.224;12.074;2023-04-15T03:39:16;96549.34;;;8.38;69.59
2841;BME280;53423;49.224;12.074;2023-04-15T03:41:45;96565.38;;;8.35;69.33
2841;BME280;53423;49.224;12.074;2023-04-15T03:44:13;96564.81;;;8.25;70.25
2841;BME280;53423;49.224;12.074;2023-04-15T03:46:41;96561.25;;;8.18;70.29
2841;BME280;53423;49.224;12.074;2023-04-15T03:49:09;96555.78;;;8.27;69.99
2841;BME280;53423;49.224;12.074;2023-04-15T03:51:37;96556.16;;;8.24;69.63
2841;BME280;53423;49.224;12.074;2023-04-15T03:54:05;96561.16;;;8.11;70.63
2841;BME280;53423;49.224;12.074;2023-04-15T03:56:33;96564.03;;;8.16;70.18
2841;BME280;53423;49.224;12.074;2023-04-15T03:59:02;96565.44;;;8.04;70.67
2841;BME280;53423;49.224;12.074;2023-04-15T04:01:30;96566.69;;;8.08;70.85
2841;BME280;53423;49.224;12.074;2023-04-15T04:03:58;96566.38;;;8.11;70.13
2841;BME280;53423;49.224;12.074;2023-04-15T04:06:26;96566.38;;;8.11;70.22
2841;BME280;53423;49.224;12.074;2023-04-15T04:08:54;96566.19;;;8.13;70.31
2841;BME280;53423;49.224;12.074;2023-04-15T04:11:22;96567.78;;;8.14;70.22
2841;BME280;53423;49.224;12.074;2023-04-15T04:13:50;96565.81;;;8.16;70.73
2841;BME280;53423;49.224;12.074;2023-04-15T04:16:19;96569.72;;;8.20;70.10
2841;BME280;53423;49.224;12.074;2023-04-15T04:18:47;96576.38;;;8.22;70.06
2841;BME280;53423;49.224;12.074;2023-04-15T04:21:15;96571.22;;;8.14;70.31
2841;BME280;53423;49.224;12.074;2023-04-15T04:23:43;96580.38;;;8.10;70.93
2841;BME280;53423;49.224;12.074;2023-04-15T04:26:11;96584.28;;;8.14;69.77
2841;BME280;53423;49.224;12.074;2023-04-15T04:28:39;96586.97;;;8.06;70.14
2841;BME280;53423;49.224;12.074;2023-04-15T04:31:07;96585.28;;;7.91;71.39
2841;BME280;53423;49.224;12.074;2023-04-15T04:33:36;96593.13;;;8.05;70.64
2841;BME280;53423;49.224;12.074;2023-04-15T04:36:05;96597.44;;;7.98;70.50
2841;BME280;53423;49.224;12.074;2023-04-15T04:38:33;96590.78;;;7.96;70.56
2841;BME280;53423;49.224;12.074;2023-04-15T04:41:00;96596.66;;;7.98;70.37
2841;BME280;53423;49.224;12.074;2023-04-15T04:43:28;96600.56;;;7.94;70.75
2841;BME280;53423;49.224;12.074;2023-04-15T04:45:57;96604.69;;;7.88;70.59
2841;BME280;53423;49.224;12.074;2023-04-15T04:48:25;96612.41;;;8.04;70.78
2841;BME280;53423;49.224;12.074;2023-04-15T04:50:54;96603.69;;;8.12;70.80
2841;BME280;53423;49.224;12.074;2023-04-15T04:53:22;96609.34;;;8.01;70.67
2841;BME280;53423;49.224;12.074;2023-04-15T04:55:50;96610.16;;;8.01;71.05
2841;BME280;53423;49.224;12.074;2023-04-15T04:58:17;96614.13;;;8.12;70.07
2841;BME280;53423;49.224;12.074;2023-04-15T05:00:46;96609.91;;;8.11;70.29
2841;BME280;53423;49.224;12.074;2023-04-15T05:03:14;96619.53;;;8.10;70.67
2841;BME280;53423;49.224;12.074;2023-04-15T05:05:42;96615.13;;;8.11;70.95
2841;BME280;53423;49.224;12.074;2023-04-15T05:08:11;96617.16;;;8.01;70.54
2841;BME280;53423;49.224;12.074;2023-04-15T05:10:39;96614.72;;;7.99;70.71
2841;BME280;53423;49.224;12.074;2023-04-15T05:13:07;96615.19;;;8.03;70.80
2841;BME280;53423;49.224;12.074;2023-04-15T05:15:35;96616.72;;;8.12;70.67
2841;BME280;53423;49.224;12.074;2023-04-15T05:18:05;96617.84;;;8.17;70.19
2841;BME280;53423;49.224;12.074;2023-04-15T05:20:33;96617.78;;;8.25;70.40
2841;BME280;53423;49.224;12.074;2023-04-15T05:23:01;96614.13;;;8.34;70.03
2841;BME280;53423;49.224;12.074;2023-04-15T05:25:30;96616.50;;;8.21;69.81
2841;BME280;53423;49.224;12.074;2023-04-15T05:27:58;96610.28;;;8.22;69.95
2841;BME280;53423;49.224;12.074;2023-04-15T05:30:26;96608.69;;;8.21;69.92
2841;BME280;53423;49.224;12.074;2023-04-15T05:32:54;96613.94;;;8.13;70.57
2841;BME280;53423;49.224;12.074;2023-04-15T05:35:22;96618.03;;;8.16;70.84
2841;BME280;53423;49.224;12.074;2023-04-15T05:37:50;96618.44;;;8.27;70.23
2841;BME280;53423;49.224;12.074;2023-04-15T05:40:18;96624.75;;;8.10;70.56
2841;BME280;53423;49.224;12.074;2023-04-15T05:42:48;96626.13;;;8.21;69.56
2841;BME280;53423;49.224;12.074;2023-04-15T05:45:16;96625.13;;;8.22;70.14
2841;BME280;53423;49.224;12.074;2023-04-15T05:47:44;96626.38;;;8.34;69.74
2841;BME280;53423;49.224;12.074;2023-04-15T05:50:12;96624.66;;;8.18;69.18
2841;BME280;53423;49.224;12.074;2023-04-15T05:52:40;96618.56;;;8.11;69.96
2841;BME280;53423;49.224;12.074;2023-04-15T05:55:08;96620.97;;;7.90;69.45
2841;BME280;53423;49.224;12.074;2023-04-15T05:57:36;96618.41;;;8.05;68.71
2841;BME280;53423;49.224;12.074;2023-04-15T06:00:07;96618.41;;;8.05;68.91
2841;BME280;53423;49.224;12.074;2023-04-15T06:02:35;96627.88;;;8.06;69.04
2841;BME280;53423;49.224;12.074;2023-04-15T06:05:04;96623.19;;;8.24;69.04
2841;BME280;53423;49.224;12.074;2023-04-15T06:07:35;96617.28;;;8.30;68.75
2841;BME280;53423;49.224;12.074;2023-04-15T06:10:04;96624.00;;;8.02;68.79
2841;BME280;53423;49.224;12.074;2023-04-15T06:12:32;96622.03;;;8.04;68.72
2841;BME280;53423;49.224;12.074;2023-04-15T06:15:00;96626.84;;;8.15;68.32
2841;BME280;53423;49.224;12.074;2023-04-15T06:17:30;96628.88;;;8.27;68.54
2841;BME280;53423;49.224;12.074;2023-04-15T06:19:58;96629.47;;;8.52;67.41
2841;BME280;53423;49.224;12.074;2023-04-15T06:22:26;96626.00;;;8.37;68.12
2841;BME280;53423;49.224;12.074;2023-04-15T06:24:54;96619.63;;;8.17;68.54
2841;BME280;53423;49.224;12.074;2023-04-15T06:27:22;96613.41;;;8.26;68.85
2841;BME280;53423;49.224;12.074;2023-04-15T06:29:50;96620.69;;;8.30;68.06
2841;BME280;53423;49.224;12.074;2023-04-15T06:32:18;96622.91;;;8.41;67.67
2841;BME280;53423;49.224;12.074;2023-04-15T06:34:47;96619.81;;;8.38;67.38
2841;BME280;53423;49.224;12.074;2023-04-15T06:37:15;96624.88;;;8.39;67.52
2841;BME280;53423;49.224;12.074;2023-04-15T06:39:43;96632.97;;;8.44;67.35
2841;BME280;53423;49.224;12.074;2023-04-15T06:42:11;96634.03;;;8.35;67.90
2841;BME280;53423;49.224;12.074;2023-04-15T06:44:39;96626.19;;;8.13;68.18
2841;BME280;53423;49.224;12.074;2023-04-15T06:47:07;96634.22;;;8.11;68.96
2841;BME280;53423;49.224;12.074;2023-04-15T06:49:35;96636.25;;;8.01;68.14
2841;BME280;53423;49.224;12.074;2023-04-15T06:52:04;96635.13;;;7.96;68.36
2841;BME280;53423;49.224;12.074;2023-04-15T06:54:32;96637.28;;;7.92;68.90
2841;BME280;53423;49.224;12.074;2023-04-15T06:57:00;96632.47;;;8.04;68.51
2841;BME280;53423;49.224;12.074;2023-04-15T06:59:28;96624.91;;;8.09;68.08
2841;BME280;53423;49.224;12.074;2023-04-15T07:01:56;96627.72;;;8.07;68.51
2841;BME280;53423;49.224;12.074;2023-04-15T07:04:24;96639.25;;;8.13;68.75
2841;BME280;53423;49.224;12.074;2023-04-15T07:06:53;96636.25;;;8.24;68.39
2841;BME280;53423;49.224;12.074;2023-04-15T07:09:23;96637.72;;;8.26;68.22
2841;BME280;53423;49.224;12.074;2023-04-15T07:11:51;96639.06;;;8.37;67.74
2841;BME280;53423;49.224;12.074;2023-04-15T07:14:19;96642.94;;;8.26;67.84
2841;BME280;53423;49.224;12.074;2023-04-15T07:16:47;96633.69;;;8.16;67.83
2841;BME280;53423;49.224;12.074;2023-04-15T07:19:14;96640.44;;;8.33;67.91
2841;BME280;53423;49.224;12.074;2023-04-15T07:21:42;96641.06;;;8.35;68.40
2841;BME280;53423;49.224;12.074;2023-04-15T07:24:10;96643.34;;;8.52;68.28
2841;BME280;53423;49.224;12.074;2023-04-15T07:26:43;96637.81;;;8.70;67.24
2841;BME280;53423;49.224;12.074;2023-04-15T07:29:11;96643.59;;;8.80;67.27
2841;BME280;53423;49.224;12.074;2023-04-15T07:31:39;96645.75;;;8.91;66.41
2841;BME280;53423;49.224;12.074;2023-04-15T07:34:07;96642.84;;;9.01;66.27
2841;BME280;53423;49.224;12.074;2023-04-15T07:36:35;96647.34;;;8.92;66.38
2841;BME280;53423;49.224;12.074;2023-04-15T07:39:03;96645.59;;;9.07;65.78
2841;BME280;53423;49.224;12.074;2023-04-15T07:41:31;96647.00;;;8.95;66.36
2841;BME280;53423;49.224;12.074;2023-04-15T07:44:03;96650.44;;;9.10;66.14
2841;BME280;53423;49.224;12.074;2023-04-15T07:46:31;96647.09;;;9.16;65.62
2841;BME280;53423;49.224;12.074;2023-04-15T07:48:59;96647.38;;;9.07;66.31
2841;BME280;53423;49.224;12.074;2023-04-15T07:51:27;96663.94;;;8.85;65.92
2841;BME280;53423;49.224;12.074;2023-04-15T07:53:56;96667.59;;;8.75;66.29
2841;BME280;53423;49.224;12.074;2023-04-15T07:56:24;96661.59;;;8.75;66.35
2841;BME280;53423;49.224;12.074;2023-04-15T07:58:52;96659.78;;;8.75;67.14
2841;BME280;53423;49.224;12.074;2023-04-15T08:01:21;96659.44;;;8.93;66.51
2841;BME280;53423;49.224;12.074;2023-04-15T08:03:49;96661.06;;;8.94;66.69
2841;BME280;53423;49.224;12.074;2023-04-15T08:06:18;96667.47;;;8.92;67.09
2841;BME280;53423;49.224;12.074;2023-04-15T08:08:46;96668.16;;;8.71;67.09
2841;BME280;53423;49.224;12.074;2023-04-15T08:11:14;96679.22;;;8.58;67.16
2841;BME280;53423;49.224;12.074;2023-04-15T08:13:42;96670.75;;;8.56;67.18
2841;BME280;53423;49.224;12.074;2023-04-15T08:16:17;96681.00;;;8.58;68.36
2841;BME280;53423;49.224;12.074;2023-04-15T08:18:47;96685.19;;;8.82;67.07
2841;BME280;53423;49.224;12.074;2023-04-15T08:21:16;96675.66;;;8.89;66.88
2841;BME280;53423;49.224;12.074;2023-04-15T08:23:46;96676.38;;;8.97;66.67
2841;BME280;53423;49.224;12.074;2023-04-15T08:26:14;96678.59;;;8.86;66.73
2841;BME280;53423;49.224;12.074;2023-04-15T08:28:44;96687.63;;;8.68;67.63
2841;BME280;53423;49.224;12.074;2023-04-15T08:31:13;96682.41;;;8.83;67.59
2841;BME280;53423;49.224;12.074;2023-04-15T08:33:41;96678.28;;;9.03;66.95
2841;BME280;53423;49.224;12.074;2023-04-15T08:36:10;96692.88;;;8.98;66.37
2841;BME280;53423;49.224;12.074;2023-04-15T08:38:39;96687.63;;;8.98;67.41
2841;BME280;53423;49.224;12.074;2023-04-15T08:41:20;96689.38;;;9.05;66.22
2841;BME280;53423;49.224;12.074;2023-04-15T08:43:52;96695.28;;;8.85;66.90
2841;BME280;53423;49.224;12.074;2023-04-15T08:46:21;96691.50;;;8.87;67.45
2841;BME280;53423;49.224;12.074;2023-04-15T08:48:50;96692.78;;;8.91;66.69
2841;BME280;53423;49.224;12.074;2023-04-15T08:51:20;96696.88;;;8.71;67.64
2841;BME280;53423;49.224;12.074;2023-04-15T08:53:50;96697.63;;;8.94;67.12
2841;BME280;53423;49.224;12.074;2023-04-15T08:56:23;96686.72;;;8.91;67.30
2841;BME280;53423;49.224;12.074;2023-04-15T08:58:52;96699.06;;;8.82;67.47
2841;BME280;53423;49.224;12.074;2023-04-15T09:01:20;96692.69;;;8.99;67.00
2841;BME280;53423;49.224;12.074;2023-04-15T09:03:51;96698.81;;;8.92;66.50
2841;BME280;53423;49.224;12.074;2023-04-15T09:06:22;96688.03;;;8.72;67.31
2841;BME280;53423;49.224;12.074;2023-04-15T09:08:50;96691.56;;;8.64;68.44
2841;BME280;53423;49.224;12.074;2023-04-15T09:11:18;96704.56;;;8.87;67.77
2841;BME280;53423;49.224;12.074;2023-04-15T09:13:48;96710.75;;;9.09;67.04
2841;BME280;53423;49.224;12.074;2023-04-15T09:16:16;96705.06;;;9.05;67.70
2841;BME280;53423;49.224;12.074;2023-04-15T09:18:44;96713.50;;;8.93;67.82
2841;BME280;53423;49.224;12.074;2023-04-15T09:21:13;96711.81;;;9.14;66.90
2841;BME280;53423;49.224;12.074;2023-04-15T09:23:55;96710.19;;;9.28;66.69
2841;BME280;53423;49.224;12.074;2023-04-15T09:26:31;96718.38;;;8.96;66.86
2841;BME280;53423;49.224;12.074;2023-04-15T09:29:06;96715.28;;;8.77;68.33
2841;BME280;53423;49.224;12.074;2023-04-15T09:31:38;96724.03;;;8.99;66.60
2841;BME280;53423;49.224;12.074;2023-04-15T09:34:09;96726.47;;;8.86;67.59
2841;BME280;53423;49.224;12.074;2023-04-15T09:36:51;96731.72;;;9.01;67.35
2841;BME280;53423;49.224;12.074;2023-04-15T09:39:20;96730.94;;;9.15;66.44
2841;BME280;53423;49.224;12.074;2023-04-15T09:42:03;96736.63;;;9.18;66.47
2841;BME280;53423;49.224;12.074;2023-04-15T09:44:32;96737.25;;;9.20;66.43
2841;BME280;53423;49.224;12.074;2023-04-15T09:47:02;96734.72;;;9.41;66.37
2841;BME280;53423;49.224;12.074;2023-04-15T09:49:31;96733.13;;;9.40;66.26
2841;BME280;53423;49.224;12.074;2023-04-15T09:51:59;96733.28;;;9.53;65.46
2841;BME280;53423;49.224;12.074;2023-04-15T09:54:35;96736.97;;;9.44;65.45
2841;BME280;53423;49.224;12.074;2023-04-15T09:57:06;96737.34;;;9.41;65.72
2841;BME280;53423;49.224;12.074;2023-04-15T09:59:35;96735.09;;;9.53;65.48
2841;BME280;53423;49.224;12.074;2023-04-15T10:02:04;96729.84;;;9.67;65.31
2841;BME280;53423;49.224;12.074;2023-04-15T10:04:35;96730.19;;;9.79;65.62
2841;BME280;53423;49.224;12.074;2023-04-15T10:07:04;96731.44;;;9.83;65.33
2841;BME280;53423;49.224;12.074;2023-04-15T10:09:35;96734.06;;;9.97;65.42
2841;BME280;53423;49.224;12.074;2023-04-15T10:12:03;96735.50;;;9.85;65.04
2841;BME280;53423;49.224;12.074;2023-04-15T10:14:34;96732.91;;;9.85;64.37
2841;BME280;53423;49.224;12.074;2023-04-15T10:17:04;96735.28;;;10.01;64.52
2841;BME280;53423;49.224;12.074;2023-04-15T10:19:37;96732.19;;;10.27;63.95
2841;BME280;53423;49.224;12.074;2023-04-15T10:22:05;96735.13;;;10.18;63.16
2841;BME280;53423;49.224;12.074;2023-04-15T10:24:34;96732.16;;;9.91;64.55
2841;BME280;53423;49.224;12.074;2023-04-15T10:27:04;96735.44;;;9.64;64.92
2841;BME280;53423;49.224;12.074;2023-04-15T10:29:33;96738.56;;;9.74;64.88
2841;BME280;53423;49.224;12.074;2023-04-15T10:32:02;96739.59;;;9.73;64.08
2841;BME280;53423;49.224;12.074;2023-04-15T10:34:31;96741.72;;;9.84;63.81
2841;BME280;53423;49.224;12.074;2023-04-15T10:37:01;96739.53;;;10.02;65.09
2841;BME280;53423;49.224;12.074;2023-04-15T10:39:41;96739.28;;;9.97;64.74
2841;BME280;53423;49.224;12.074;2023-04-15T10:42:11;96739.03;;;9.92;64.80
2841;BME280;53423;49.224;12.074;2023-04-15T10:44:42;96738.78;;;10.23;63.56
2841;BME280;53423;49.224;12.074;2023-04-15T10:47:11;96738.63;;;10.46;64.07
2841;BME280;53423;49.224;12.074;2023-04-15T10:49:44;96744.88;;;10.66;62.28
2841;BME280;53423;49.224;12.074;2023-04-15T10:52:13;96740.50;;;10.52;63.18
2841;BME280;53423;49.224;12.074;2023-04-15T10:54:44;96746.47;;;10.67;62.78
2841;BME280;53423;49.224;12.074;2023-04-15T10:57:21;96743.31;;;10.71;63.09
2841;BME280;53423;49.224;12.074;2023-04-15T11:00:00;96742.09;;;10.74;61.85
2841;BME280;53423;49.224;12.074;2023-04-15T11:02:39;96748.34;;;10.73;61.39
2841;BME280;53423;49.224;12.074;2023-04-15T11:05:08;96742.88;;;10.95;60.60
2841;BME280;53423;49.224;12.074;2023-04-15T11:07:39;96740.94;;;11.04;60.69
2841;BME280;53423;49.224;12.074;2023-04-15T11:13:27;96747.66;;;10.85;61.39
2841;BME280;53423;49.224;12.074;2023-04-15T11:16:01;96747.59;;;11.00;60.47
2841;BME280;53423;49.224;12.074;2023-04-15T11:18:31;96749.78;;;10.96;61.38
2841;BME280;53423;49.224;12.074;2023-04-15T11:21:01;96751.22;;;10.57;61.74
2841;BME280;53423;49.224;12.074;2023-04-15T11:23:32;96758.78;;;10.66;61.98
2841;BME280;53423;49.224;12.074;2023-04-15T11:26:01;96758.31;;;10.42;62.42
2841;BME280;53423;49.224;12.074;2023-04-15T11:28:36;96763.66;;;10.48;62.59
2841;BME280;53423;49.224;12.074;2023-04-15T11:31:08;96764.50;;;10.55;62.34
2841;BME280;53423;49.224;12.074;2023-04-15T11:33:44;96769.69;;;9.98;63.88
2841;BME280;53423;49.224;12.074;2023-04-15T11:36:12;96766.03;;;10.29;63.87
2841;BME280;53423;49.224;12.074;2023-04-15T11:38:45;96769.06;;;10.47;63.27
2841;BME280;53423;49.224;12.074;2023-04-15T11:41:13;96770.81;;;10.40;62.75
2841;BME280;53423;49.224;12.074;2023-04-15T11:43:43;96772.81;;;10.38;63.79
2841;BME280;53423;49.224;12.074;2023-04-15T11:46:11;96776.41;;;10.37;63.70
2841;BME280;53423;49.224;12.074;2023-04-15T11:48:42;96773.31;;;10.48;63.59
2841;BME280;53423;49.224;12.074;2023-04-15T11:51:11;96777.81;;;10.75;62.87
2841;BME280;53423;49.224;12.074;2023-04-15T11:53:42;96785.63;;;10.68;62.36
2841;BME280;53423;49.224;12.074;2023-04-15T11:56:16;96782.00;;;10.69;61.75
2841;BME280;53423;49.224;12.074;2023-04-15T11:58:47;96784.28;;;10.58;62.68
2841;BME280;53423;49.224;12.074;2023-04-15T12:01:16;96791.22;;;10.65;62.73
2841;BME280;53423;49.224;12.074;2023-04-15T12:03:45;96793.34;;;10.76;62.69
2841;BME280;53423;49.224;12.074;2023-04-15T12:06:16;96785.78;;;10.67;61.59
2841;BME280;53423;49.224;12.074;2023-04-15T12:09:04;96790.94;;;10.39;62.32
2841;BME280;53423;49.224;12.074;2023-04-15T12:11:39;96797.47;;;10.29;62.57
2841;BME280;53423;49.224;12.074;2023-04-15T12:14:11;96800.38;;;10.19;62.66
2841;BME280;53423;49.224;12.074;2023-04-15T12:16:41;96803.22;;;10.39;62.80
2841;BME280;53423;49.224;12.074;2023-04-15T12:19:16;96801.81;;;10.57;62.40
2841;BME280;53423;49.224;12.074;2023-04-15T12:21:46;96811.72;;;10.41;62.33
2841;BME280;53423;49.224;12.074;2023-04-15T12:24:14;96816.13;;;10.55;62.55
2841;BME280;53423;49.224;12.074;2023-04-15T12:26:43;96808.59;;;10.52;62.25
2841;BME280;53423;49.224;12.074;2023-04-15T12:29:14;96817.28;;;10.52;62.52
2841;BME280;53423;49.224;12.074;2023-04-15T12:31:50;96813.69;;;10.53;61.65
2841;BME280;53423;49.224;12.074;2023-04-15T12:34:25;96818.50;;;10.35;63.33
2841;BME280;53423;49.224;12.074;2023-04-15T12:36:53;96820.78;;;10.24;63.49
2841;BME280;53423;49.224;12.074;2023-04-15T12:39:22;96823.94;;;10.34;63.79
2841;BME280;53423;49.224;12.074;2023-04-15T12:41:50;96829.91;;;10.28;63.43
2841;BME280;53423;49.224;12.074;2023-04-15T12:44:22;96840.84;;;10.17;64.31
2841;BME280;53423;49.224;12.074;2023-04-15T12:46:50;96835.06;;;10.21;63.88
2841;BME280;53423;49.224;12.074;2023-04-15T12:49:19;96834.50;;;10.26;63.33
2841;BME280;53423;49.224;12.074;2023-04-15T12:51:48;96845.44;;;10.29;63.77
2841;BME280;53423;49.224;12.074;2023-04-15T12:54:16;96846.06;;;10.17;64.64
2841;BME280;53423;49.224;12.074;2023-04-15T12:56:44;96856.22;;;10.20;64.63
2841;BME280;53423;49.224;12.074;2023-04-15T12:59:13;96863.22;;;10.04;64.88
2841;BME280;53423;49.224;12.074;2023-04-15T13:01:43;96863.94;;;9.84;66.08
2841;BME280;53423;49.224;12.074;2023-04-15T13:04:11;96873.44;;;9.99;65.75
2841;BME280;53423;49.224;12.074;2023-04-15T13:06:39;96868.72;;;9.95;66.25
2841;BME280;53423;49.224;12.074;2023-04-15T13:09:09;96878.56;;;10.07;65.71
2841;BME280;53423;49.224;12.074;2023-04-15T13:11:37;96884.69;;;9.85;66.39
2841;BME280;53423;49.224;12.074;2023-04-15T13:14:07;96875.47;;;9.75;66.83
2841;BME280;53423;49.224;12.074;2023-04-15T13:16:37;96878.00;;;9.83;66.71
2841;BME280;53423;49.224;12.074;2023-04-15T13:19:06;96879.19;;;9.95;66.54
2841;BME280;53423;49.224;12.074;2023-04-15T13:21:34;96880.38;;;9.92;66.27
2841;BME280;53423;49.224;12.074;2023-04-15T13:24:03;96883.03;;;9.84;66.89